Blachly, Oregon
Current Conditions -  °F | °C
As of 2:54 AM on Thursday 18 Dec 2014 (Local Time) from KEUG Reporting Station
Overcast Overcast  
Wind Chill: 41°   Ceiling: 6000
Heat Index: 41°   Visibility: 8mi
Dew Point: 40°   Wind: 3mph
Humidity: 96%   Direction: 220°SW
Pressure: 29.98"   Gusts: NA
Location:  44.19°N, 123.53°W
Report Text: KEUG 181054Z AUTO 22003KT 8SM OVC060 05/04 A2998 RMK AO2 SLP152 T00500044
Loading
Personal Weather Stations






























Interactive Weather Map New forecast layout! Learn more

10-Day Weather Forecast

Advertisements
Track Severe Weather on mobile